Time;durP1;ratioP1;P1;durP2;ratioP2;P2;SDS_P1;SDS_P2;PMS_P1;PMS_P2;Temp;Humidity;BMP_temperature;BMP_pressure;BME280_temperature;BME280_humidity;BME280_pressure;Samples;Min_cycle;Max_cycle;Signal;HPM_P1;HPM_P2
2022/07/17 00:01:29;;;;;;;;;;;;;;;13.65;100.00;-25451.03;5029991;28;19913;-78
2022/07/17 00:03:56;;;;;;;;;;;;;;;13.60;100.00;-25449.56;5012789;28;19916;-78
2022/07/17 00:06:21;;;;;;;;;;;;;;;13.68;100.00;-25451.59;5045870;28;19960;-78
2022/07/17 00:08:46;;;;;;;;;;;;;;;13.70;100.00;-25452.34;5012372;28;19956;-78
2022/07/17 00:11:11;;;;;;;;;;;;;;;13.79;100.00;-25454.97;5017799;28;20357;-79
2022/07/17 00:13:38;;;;;;;;;;;;;;;13.75;100.00;-25453.66;5032043;28;19913;-78
2022/07/17 00:16:03;;;;;;;;;;;;;;;13.58;100.00;-25448.84;5015545;28;20405;-79
2022/07/17 00:18:29;;;;;;;;;;;;;;;13.37;100.00;-25443.00;5045673;28;19960;-77
2022/07/17 00:20:54;;;;;;;;;;;;;;;13.36;100.00;-25442.56;5030570;28;19913;-78
2022/07/17 00:23:20;;;;;;;;;;;;;;;13.41;100.00;-25444.16;5036001;28;20350;-78
2022/07/17 00:25:46;;;;;;;;;;;;;;;13.39;100.00;-25443.59;5035179;28;19920;-78
2022/07/17 00:28:11;;;;;;;;;;;;;;;13.35;100.00;-25442.28;5026294;28;19917;-78
2022/07/17 00:30:38;;;;;;;;;;;;;;;13.33;100.00;-25441.69;5036310;28;20433;-79
2022/07/17 00:33:05;;;;;;;;;;;;;;;13.30;100.00;-25440.94;5035998;28;19917;-77
2022/07/17 00:35:30;;;;;;;;;;;;;;;13.31;100.00;-25441.09;5035770;28;19915;-77
2022/07/17 00:37:56;;;;;;;;;;;;;;;13.37;100.00;-25443.00;5035667;28;19913;-79
2022/07/17 00:40:22;;;;;;;;;;;;;;;13.33;100.00;-25441.81;5036093;28;19920;-78
2022/07/17 00:42:50;;;;;;;;;;;;;;;13.26;100.00;-25439.78;5035789;28;19920;-78
2022/07/17 00:45:16;;;;;;;;;;;;;;;13.34;100.00;-25442.13;5025835;28;19917;-78
2022/07/17 00:48:01;;;;;;;;;;;;;;;13.45;100.00;-25445.19;5016198;28;20004;-77
2022/07/17 00:50:36;;;;;;;;;;;;;;;13.42;100.00;-25444.47;5029453;28;19944;-79
2022/07/17 00:53:03;;;;;;;;;;;;;;;13.38;100.00;-25443.28;5035597;28;19917;-77
2022/07/17 00:55:29;;;;;;;;;;;;;;;13.43;100.00;-25444.75;5033985;28;19943;-78
2022/07/17 00:57:55;;;;;;;;;;;;;;;13.54;100.00;-25447.81;5030905;28;20400;-82
2022/07/17 01:00:21;;;;;;;;;;;;;;;13.56;100.00;-25448.25;5026133;28;20408;-80
2022/07/17 01:02:49;;;;;;;;;;;;;;;13.53;100.00;-25447.53;5035568;28;20281;-78
2022/07/17 01:05:15;;;;;;;;;;;;;;;13.60;100.00;-25449.56;5017408;28;19932;-80
2022/07/17 01:07:40;;;;;;;;;;;;;;;13.61;100.00;-25449.84;5015816;28;19921;-82
2022/07/17 01:10:06;;;;;;;;;;;;;;;13.60;100.00;-25449.41;5015323;28;19913;-83
2022/07/17 01:12:32;;;;;;;;;;;;;;;13.64;100.00;-25450.72;5015950;28;20373;-78
2022/07/17 01:14:59;;;;;;;;;;;;;;;13.66;100.00;-25451.16;5017835;28;20007;-78
2022/07/17 01:17:24;;;;;;;;;;;;;;;13.70;100.00;-25452.34;5033418;28;19924;-79
2022/07/17 01:19:49;;;;;;;;;;;;;;;13.48;100.00;-25446.06;5019216;28;19913;-81
2022/07/17 01:22:14;;;;;;;;;;;;;;;13.44;100.00;-25444.91;5037544;28;20019;-83
2022/07/17 01:24:41;;;;;;;;;;;;;;;13.29;100.00;-25440.78;5037883;28;19913;-78
2022/07/17 01:27:06;;;;;;;;;;;;;;;13.24;100.00;-25439.34;5033540;28;21660;-80
2022/07/17 01:29:32;;;;;;;;;;;;;;;13.26;100.00;-25439.91;5021870;28;19924;-76
2022/07/17 01:31:57;;;;;;;;;;;;;;;13.30;100.00;-25440.94;5037858;28;19947;-77
2022/07/17 01:34:30;;;;;;;;;;;;;;;13.27;100.00;-25440.22;5028697;28;19912;-79
2022/07/17 01:36:55;;;;;;;;;;;;;;;13.26;100.00;-25439.91;5018451;28;19960;-76
2022/07/17 01:39:52;;;;;;;;;;;;;;;13.27;100.00;-25440.22;5038739;28;19925;-76
2022/07/17 01:42:08;;;;;;;;;;;;;;;13.32;100.00;-25441.53;5055714;28;19916;-79
2022/07/17 01:44:39;;;;;;;;;;;;;;;13.35;100.00;-25442.41;5038310;28;19919;-79
2022/07/17 01:47:04;;;;;;;;;;;;;;;13.40;100.00;-25443.72;5038252;28;19952;-78
2022/07/17 01:49:29;;;;;;;;;;;;;;;13.42;100.00;-25444.47;5053539;28;19924;-77
2022/07/17 01:51:59;;;;;;;;;;;;;;;13.36;100.00;-25442.56;5036811;28;20334;-79
2022/07/17 01:54:25;;;;;;;;;;;;;;;13.40;100.00;-25443.72;5019387;28;19920;-77
2022/07/17 01:56:50;;;;;;;;;;;;;;;13.37;100.00;-25443.00;5037085;28;19958;-78
2022/07/17 01:59:15;;;;;;;;;;;;;;;13.42;100.00;-25444.31;5027217;28;19967;-79
2022/07/17 02:01:41;;;;;;;;;;;;;;;13.44;100.00;-25444.91;5035701;28;20273;-80
2022/07/17 02:04:06;;;;;;;;;;;;;;;13.27;100.00;-25440.22;5053833;28;20004;-77
2022/07/17 02:06:31;;;;;;;;;;;;;;;13.14;100.00;-25436.41;5037804;28;20453;-78
2022/07/17 02:08:57;;;;;;;;;;;;;;;13.16;100.00;-25436.84;5019809;28;19920;-78
2022/07/17 02:11:22;;;;;;;;;;;;;;;13.05;100.00;-25433.78;5037652;28;19919;-78
2022/07/17 02:13:48;;;;;;;;;;;;;;;13.04;100.00;-25433.50;5037119;28;20250;-77
2022/07/17 02:16:14;;;;;;;;;;;;;;;13.06;100.00;-25434.22;5014703;28;20035;-77
2022/07/17 02:18:39;;;;;;;;;;;;;;;13.09;100.00;-25434.97;5014151;28;19953;-77
2022/07/17 02:21:04;;;;;;;;;;;;;;;13.10;100.00;-25435.25;5046825;28;19964;-77
2022/07/17 02:23:33;;;;;;;;;;;;;;;13.07;100.00;-25434.38;5014112;28;20281;-77
2022/07/17 02:25:59;;;;;;;;;;;;;;;13.08;100.00;-25434.66;5014277;28;19972;-77
2022/07/17 02:28:24;;;;;;;;;;;;;;;13.08;100.00;-25434.66;5047616;28;19924;-78
2022/07/17 02:30:49;;;;;;;;;;;;;;;13.11;100.00;-25435.53;5030251;28;19943;-79
2022/07/17 02:33:16;;;;;;;;;;;;;;;13.07;100.00;-25434.38;5035144;28;20350;-77
2022/07/17 02:35:42;;;;;;;;;;;;;;;13.07;100.00;-25434.38;5033399;28;19913;-78
2022/07/17 02:38:07;;;;;;;;;;;;;;;13.08;100.00;-25434.66;5026010;28;19939;-77
2022/07/17 02:40:32;;;;;;;;;;;;;;;13.07;100.00;-25434.38;5024470;28;19913;-77
2022/07/17 02:42:59;;;;;;;;;;;;;;;12.97;100.00;-25431.59;5024637;28;20315;-77
2022/07/17 02:45:24;;;;;;;;;;;;;;;12.87;100.00;-25428.69;5033533;28;19940;-77
2022/07/17 02:47:50;;;;;;;;;;;;;;;12.87;100.00;-25428.69;5017806;28;20353;-78
2022/07/17 02:50:15;;;;;;;;;;;;;;;12.85;100.00;-25428.09;5024486;28;20007;-81
2022/07/17 02:52:43;;;;;;;;;;;;;;;12.74;100.00;-25425.03;5033681;28;19998;-83
2022/07/17 02:55:09;;;;;;;;;;;;;;;12.72;100.00;-25424.59;5032507;28;19917;-77
2022/07/17 02:57:34;;;;;;;;;;;;;;;12.72;100.00;-25424.44;5033142;28;19923;-78
2022/07/17 02:59:59;;;;;;;;;;;;;;;12.71;100.00;-25424.28;5032916;28;19917;-79
2022/07/17 03:02:26;;;;;;;;;;;;;;;12.77;100.00;-25425.91;5034243;28;19964;-78
2022/07/17 03:04:51;;;;;;;;;;;;;;;12.71;100.00;-25424.28;5034040;28;19913;-78
2022/07/17 03:07:16;;;;;;;;;;;;;;;12.67;100.00;-25422.97;5032884;28;19913;-77
2022/07/17 03:09:42;;;;;;;;;;;;;;;12.64;100.00;-25422.09;5032491;28;19940;-79
2022/07/17 03:12:07;;;;;;;;;;;;;;;12.70;100.00;-25423.84;5033507;28;19977;-77
2022/07/17 03:14:33;;;;;;;;;;;;;;;12.67;100.00;-25422.97;5033398;28;19917;-78
2022/07/17 03:16:58;;;;;;;;;;;;;;;12.66;100.00;-25422.69;5032561;28;19917;-77
2022/07/17 03:19:24;;;;;;;;;;;;;;;12.66;100.00;-25422.84;5033529;28;19966;-78
2022/07/17 03:21:49;;;;;;;;;;;;;;;12.63;100.00;-25421.97;5032666;28;20361;-77
2022/07/17 03:24:16;;;;;;;;;;;;;;;12.65;100.00;-25422.41;5032463;28;19966;-78
2022/07/17 03:26:42;;;;;;;;;;;;;;;12.67;100.00;-25423.13;5033168;28;19913;-76
2022/07/17 03:29:07;;;;;;;;;;;;;;;12.51;100.00;-25418.44;5030877;28;19913;-77
2022/07/17 03:31:32;;;;;;;;;;;;;;;12.48;100.00;-25417.56;5032780;28;19913;-77
2022/07/17 03:33:59;;;;;;;;;;;;;;;12.46;100.00;-25416.97;5018949;28;19917;-81
2022/07/17 03:36:25;;;;;;;;;;;;;;;12.55;100.00;-25419.75;5013034;28;19921;-79
2022/07/17 03:38:50;;;;;;;;;;;;;;;12.59;100.00;-25420.63;5013132;28;19913;-79
2022/07/17 03:41:16;;;;;;;;;;;;;;;12.47;100.00;-25417.28;5046051;28;20370;-79
2022/07/17 03:43:43;;;;;;;;;;;;;;;12.51;100.00;-25418.59;5013185;28;19981;-82
2022/07/17 03:46:08;;;;;;;;;;;;;;;12.59;100.00;-25420.63;5013906;28;19955;-78
2022/07/17 03:48:34;;;;;;;;;;;;;;;12.61;100.00;-25421.38;5031584;28;19947;-78
2022/07/17 03:50:59;;;;;;;;;;;;;;;12.65;100.00;-25422.41;5022397;28;19913;-77
2022/07/17 03:53:25;;;;;;;;;;;;;;;12.60;100.00;-25420.94;5015576;28;19921;-80
2022/07/17 03:55:50;;;;;;;;;;;;;;;12.68;100.00;-25423.28;5029956;28;19913;-78
2022/07/17 03:58:15;;;;;;;;;;;;;;;12.70;100.00;-25423.84;5009891;28;19917;-83
2022/07/17 04:00:41;;;;;;;;;;;;;;;12.76;100.00;-25425.59;5012992;28;19921;-82
2022/07/17 04:03:21;;;;;;;;;;;;;;;12.86;100.00;-25428.38;5012710;28;19936;-85
2022/07/17 04:05:46;;;;;;;;;;;;;;;12.91;100.00;-25429.84;5013076;28;19914;-83
2022/07/17 04:08:15;;;;;;;;;;;;;;;13.03;100.00;-25433.22;5012724;28;19920;-82
2022/07/17 04:10:40;;;;;;;;;;;;;;;13.11;100.00;-25435.53;5013115;28;20266;-82
2022/07/17 04:13:15;;;;;;;;;;;;;;;13.22;100.00;-25438.59;5012766;28;19964;-78
2022/07/17 04:15:52;;;;;;;;;;;;;;;13.38;100.00;-25443.16;5016201;28;19944;-80
2022/07/17 04:18:17;;;;;;;;;;;;;;;14.11;100.00;-25464.00;5017572;28;19917;-81
2022/07/17 04:20:43;;;;;;;;;;;;;;;15.02;100.00;-25489.66;5028670;28;19958;-78
2022/07/17 04:23:11;;;;;;;;;;;;;;;15.76;100.00;-25510.72;5034899;28;20380;-77
2022/07/17 04:25:36;;;;;;;;;;;;;;;15.98;100.00;-25516.84;5027603;28;19913;-78
2022/07/17 04:28:02;;;;;;;;;;;;;;;16.60;100.00;-25534.41;5033693;28;20004;-78
2022/07/17 04:30:27;;;;;;;;;;;;;;;16.91;100.00;-13985.81;5034897;28;19939;-77
2022/07/17 04:32:55;;;;;;;;;;;;;;;17.57;100.00;4588.16;5035072;28;19917;-77
2022/07/17 04:35:21;;;;;;;;;;;;;;;18.53;100.00;33024.44;5034954;28;20004;-76
2022/07/17 04:37:46;;;;;;;;;;;;;;;19.14;100.00;87171.28;5035067;28;19921;-76
2022/07/17 04:40:11;;;;;;;;;;;;;;;19.41;100.00;147606.00;5052409;28;20305;-77
2022/07/17 04:42:38;;;;;;;;;;;;;;;19.26;100.00;147568.88;5035046;28;19931;-79
2022/07/17 04:45:05;;;;;;;;;;;;;;;19.61;100.00;147655.94;5052216;28;19916;-78
2022/07/17 04:47:30;;;;;;;;;;;;;;;19.64;100.00;147663.63;5033848;28;19913;-77
2022/07/17 04:49:56;;;;;;;;;;;;;;;19.68;100.00;147673.84;5029671;28;20391;-78
2022/07/17 04:52:21;;;;;;;;;;;;;;;19.20;100.00;147553.50;5046226;28;19919;-78
2022/07/17 04:54:46;;;;;;;;;;;;;;;19.66;100.00;147668.72;5014882;28;19909;-77
2022/07/17 04:57:12;;;;;;;;;;;;;;;20.12;100.00;147782.78;5017620;28;19921;-77
2022/07/17 04:59:37;;;;;;;;;;;;;;;20.27;100.00;147819.91;5024117;28;19960;-83
2022/07/17 05:02:02;;;;;;;;;;;;;;;20.50;100.00;147876.28;5029076;28;20296;-77
2022/07/17 05:04:29;;;;;;;;;;;;;;;20.50;100.00;147876.28;5052344;28;20361;-78
2022/07/17 05:06:54;;;;;;;;;;;;;;;19.78;100.00;147698.25;5034981;28;19921;-77
2022/07/17 05:09:19;;;;;;;;;;;;;;;19.31;100.00;147580.38;5037615;28;20422;-78
2022/07/17 05:11:44;;;;;;;;;;;;;;;20.21;100.00;147804.53;5037623;28;19917;-75
2022/07/17 05:14:17;;;;;;;;;;;;;;;19.77;100.00;147694.41;5037643;28;19913;-77
2022/07/17 05:16:42;;;;;;;;;;;;;;;19.31;100.00;147580.38;5032801;28;19924;-77
2022/07/17 05:19:07;;;;;;;;;;;;;;;19.36;100.00;147594.50;5016915;28;19917;-77
2022/07/17 05:21:33;;;;;;;;;;;;;;;18.57;100.00;147397.34;5018698;28;19920;-78
2022/07/17 05:24:00;;;;;;;;;;;;;;;18.44;100.00;147365.38;5014480;28;19921;-80
2022/07/17 05:26:26;;;;;;;;;;;;;;;18.13;100.00;147287.31;5014790;28;20432;-78
2022/07/17 05:28:51;;;;;;;;;;;;;;;17.64;100.00;147165.78;5014716;28;19917;-75
2022/07/17 05:31:17;;;;;;;;;;;;;;;17.24;100.00;147066.06;5015353;28;19913;-78
2022/07/17 05:33:45;;;;;;;;;;;;;;;17.53;100.00;147137.69;5015161;28;19918;-76
2022/07/17 05:36:10;;;;;;;;;;;;;;;16.95;100.00;146993.22;4999099;28;19918;-78
2022/07/17 05:38:37;;;;;;;;;;;;;;;16.69;100.00;146929.28;5025575;28;20277;-78
2022/07/17 05:41:04;;;;;;;;;;;;;;;16.79;100.00;146954.81;5014184;28;19913;-76
2022/07/17 05:43:30;;;;;;;;;;;;;;;16.70;100.00;146931.81;5029327;28;19948;-77
2022/07/17 05:45:56;;;;;;;;;;;;;;;16.68;100.00;146927.97;5031967;28;20363;-77
2022/07/17 05:48:22;;;;;;;;;;;;;;;16.35;100.00;146844.97;5031209;28;20559;-79
2022/07/17 05:50:47;;;;;;;;;;;;;;;16.32;100.00;146837.31;5019537;28;19917;-78
2022/07/17 05:53:14;;;;;;;;;;;;;;;16.88;100.00;146976.59;5033881;28;19920;-79
2022/07/17 05:55:40;;;;;;;;;;;;;;;16.90;100.00;146980.44;5028147;28;19913;-79
2022/07/17 05:58:06;;;;;;;;;;;;;;;17.14;100.00;147040.53;5013781;28;20055;-78
2022/07/17 06:00:31;;;;;;;;;;;;;;;16.94;100.00;146990.69;5014235;28;19917;-79
2022/07/17 06:02:57;;;;;;;;;;;;;;;17.09;100.00;147027.72;5014160;28;19925;-77
2022/07/17 06:05:22;;;;;;;;;;;;;;;16.57;100.00;146898.63;5047208;28;19925;-76
2022/07/17 06:07:47;;;;;;;;;;;;;;;16.89;100.00;146979.19;5047821;28;19936;-78
2022/07/17 06:10:13;;;;;;;;;;;;;;;17.14;100.00;147040.53;5014408;28;19921;-77
2022/07/17 06:12:47;;;;;;;;;;;;;;;16.98;100.00;147002.19;5015178;28;19940;-78
2022/07/17 06:15:12;;;;;;;;;;;;;;;17.35;100.00;147092.91;5020003;28;19913;-80
2022/07/17 06:17:38;;;;;;;;;;;;;;;17.61;100.00;147156.84;5021493;28;19964;-79
2022/07/17 06:20:04;;;;;;;;;;;;;;;17.29;100.00;147077.56;5012498;28;19964;-79
2022/07/17 06:22:29;;;;;;;;;;;;;;;17.26;100.00;147069.91;5015241;28;19914;-77
2022/07/17 06:24:54;;;;;;;;;;;;;;;17.41;100.00;147109.50;5024390;28;20007;-79
2022/07/17 06:27:19;;;;;;;;;;;;;;;16.97;100.00;146999.63;5017407;28;19913;-78
2022/07/17 06:29:46;;;;;;;;;;;;;;;16.86;100.00;146971.50;5032303;28;19956;-82
2022/07/17 06:32:11;;;;;;;;;;;;;;;16.95;100.00;146993.22;5013537;28;20436;-79
2022/07/17 06:34:39;;;;;;;;;;;;;;;17.06;100.00;147021.34;5014179;28;19960;-77
2022/07/17 06:37:04;;;;;;;;;;;;;;;17.11;100.00;147032.84;5012281;28;19918;-81
2022/07/17 06:39:34;;;;;;;;;;;;;;;17.48;100.00;147124.84;5024060;28;19917;-81
2022/07/17 06:42:01;;;;;;;;;;;;;;;17.57;100.00;147149.19;5032251;28;20271;-82
2022/07/17 06:44:27;;;;;;;;;;;;;;;17.21;100.00;147059.72;5014831;28;19913;-79
2022/07/17 06:46:53;;;;;;;;;;;;;;;17.08;100.00;147025.19;5020559;28;19917;-79
2022/07/17 06:49:18;;;;;;;;;;;;;;;17.66;100.00;147169.63;4996122;28;19928;-78
2022/07/17 06:51:45;;;;;;;;;;;;;;;18.06;100.00;147269.44;4997663;28;19925;-78
2022/07/17 06:54:14;;;;;;;;;;;;;;;18.73;100.00;147435.72;5012501;28;20000;-81
2022/07/17 06:56:39;;;;;;;;;;;;;;;18.22;100.00;147310.34;5013001;28;19913;-78
2022/07/17 06:59:07;;;;;;;;;;;;;;;17.98;100.00;147248.97;5027109;28;20269;-79
2022/07/17 07:01:32;;;;;;;;;;;;;;;17.87;100.00;147222.06;5032966;28;19920;-79
2022/07/17 07:03:57;;;;;;;;;;;;;;;18.34;100.00;147338.50;5016882;28;19913;-78
2022/07/17 07:06:23;;;;;;;;;;;;;;;17.87;100.00;147223.34;5013155;28;20293;-79
2022/07/17 07:08:48;;;;;;;;;;;;;;;17.96;100.00;147243.84;5012386;28;19957;-78
2022/07/17 07:11:13;;;;;;;;;;;;;;;18.28;100.00;147324.41;5012574;28;20371;-77
2022/07/17 07:13:39;;;;;;;;;;;;;;;18.58;100.00;147399.94;5012364;28;19913;-77
2022/07/17 07:16:04;;;;;;;;;;;;;;;19.34;100.00;147589.38;5021156;28;19943;-78
2022/07/17 07:18:29;;;;;;;;;;;;;;;20.02;100.00;147758.41;5035525;28;19958;-78
2022/07/17 07:20:55;;;;;;;;;;;;;;;21.37;100.00;148094.19;5035209;28;20003;-79
2022/07/17 07:23:26;;;;;;;;;;;;;;;22.19;100.00;148298.13;5041100;28;20016;-82
2022/07/17 07:25:51;;;;;;;;;;;;;;;22.74;100.00;148435.44;5015899;28;20011;-79
2022/07/17 07:28:17;;;;;;;;;;;;;;;23.70;100.00;148675.50;5014819;28;20377;-78
2022/07/17 07:30:42;;;;;;;;;;;;;;;22.93;100.00;148484.22;5014794;28;20028;-79
2022/07/17 07:33:08;;;;;;;;;;;;;;;22.66;100.00;148416.19;5015368;28;19924;-81
2022/07/17 07:35:34;;;;;;;;;;;;;;;22.29;100.00;148322.50;5015030;28;19917;-79
2022/07/17 07:37:59;;;;;;;;;;;;;;;21.60;100.00;148150.66;5014621;28;20006;-77
2022/07/17 07:40:24;;;;;;;;;;;;;;;22.73;100.00;148432.84;5015229;28;19923;-77
2022/07/17 07:42:51;;;;;;;;;;;;;;;23.14;100.00;148535.59;5014887;28;19917;-78
2022/07/17 07:45:16;;;;;;;;;;;;;;;23.23;100.00;148557.41;5014286;28;19917;-78
2022/07/17 07:47:45;;;;;;;;;;;;;;;23.18;100.00;148544.56;5015026;28;19979;-78
2022/07/17 07:50:11;;;;;;;;;;;;;;;23.68;100.00;148670.38;5014439;28;20344;-78
2022/07/17 07:52:37;;;;;;;;;;;;;;;23.48;100.00;148620.31;5031246;28;19917;-76
2022/07/17 07:55:03;;;;;;;;;;;;;;;24.44;100.00;148859.19;5013934;28;19917;-77
2022/07/17 07:57:28;;;;;;;;;;;;;;;24.67;100.00;148917.03;5014118;28;20281;-77
2022/07/17 07:59:54;;;;;;;;;;;;;;;24.63;100.00;148908.06;5031178;28;19940;-78
2022/07/17 08:02:19;;;;;;;;;;;;;;;23.97;100.00;148742.31;5013718;28;20646;-78
2022/07/17 08:04:44;;;;;;;;;;;;;;;23.44;100.00;148610.03;5030523;28;19912;-77
2022/07/17 08:07:09;;;;;;;;;;;;;;;23.25;100.00;148563.81;5030838;28;19966;-77
2022/07/17 08:09:34;;;;;;;;;;;;;;;22.59;100.00;148399.53;5013410;28;19971;-80
2022/07/17 08:12:00;;;;;;;;;;;;;;;23.73;100.00;148681.94;5012333;28;20270;-77
2022/07/17 08:14:25;;;;;;;;;;;;;;;23.35;100.00;148586.91;5013307;28;19913;-77
2022/07/17 08:16:50;;;;;;;;;;;;;;;22.95;100.00;148488.06;5031014;28;19924;-77
2022/07/17 08:19:15;;;;;;;;;;;;;;;23.38;100.00;148594.63;5012178;28;20393;-76
2022/07/17 08:21:41;;;;;;;;;;;;;;;23.47;100.00;148617.72;5013831;28;19913;-77
2022/07/17 08:24:06;;;;;;;;;;;;;;;23.95;100.00;148738.47;5012746;28;20238;-77
2022/07/17 08:26:31;;;;;;;;;;;;;;;24.62;100.00;148904.22;5012684;28;19975;-77
2022/07/17 08:28:57;;;;;;;;;;;;;;;25.11;100.00;149026.25;5012996;28;19913;-76
2022/07/17 08:31:22;;;;;;;;;;;;;;;24.35;100.00;148837.38;5031173;28;19921;-76
2022/07/17 08:33:47;;;;;;;;;;;;;;;25.15;100.00;149036.53;5012341;28;20318;-76
2022/07/17 08:36:12;;;;;;;;;;;;;;;24.26;100.00;148815.53;5013040;28;20421;-78
2022/07/17 08:38:38;;;;;;;;;;;;;;;24.33;100.00;148833.53;5012160;28;20012;-78
2022/07/17 08:41:04;;;;;;;;;;;;;;;24.29;100.00;148821.97;5013210;28;19936;-78
2022/07/17 08:43:29;;;;;;;;;;;;;;;24.52;100.00;148879.78;5017447;28;19909;-79
2022/07/17 08:45:55;;;;;;;;;;;;;;;24.31;100.00;148827.09;5017239;28;19920;-78
2022/07/17 08:48:22;;;;;;;;;;;;;;;24.30;100.00;148824.50;5017142;28;20388;-79
2022/07/17 08:50:47;;;;;;;;;;;;;;;24.14;100.00;148784.69;5018526;28;19940;-81
2022/07/17 08:53:13;;;;;;;;;;;;;;;23.81;100.00;148703.75;5018281;28;20409;-78
2022/07/17 08:55:38;;;;;;;;;;;;;;;24.86;100.00;148965.88;5034128;28;19917;-80
2022/07/17 08:58:06;;;;;;;;;;;;;;;24.45;100.00;148863.03;5036009;28;19998;-81
2022/07/17 09:00:31;;;;;;;;;;;;;;;24.26;100.00;148815.53;5035068;28;19920;-78
2022/07/17 09:03:01;;;;;;;;;;;;;;;24.97;100.00;148991.56;5017615;28;19913;-78
2022/07/17 09:05:27;;;;;;;;;;;;;;;24.62;100.00;148905.47;5018033;28;20181;-79
2022/07/17 09:07:53;;;;;;;;;;;;;;;24.84;100.00;148960.72;5017223;28;19952;-80
2022/07/17 09:10:18;;;;;;;;;;;;;;;25.22;100.00;149054.56;5016600;28;19956;-80
2022/07/17 09:12:43;;;;;;;;;;;;;;;24.38;100.00;148845.09;5017870;28;19924;-79
2022/07/17 09:15:16;;;;;;;;;;;;;;;24.18;100.00;148794.97;5017225;28;20008;-79
2022/07/17 09:17:51;;;;;;;;;;;;;;;23.49;100.00;148622.84;5014149;28;19918;-80
2022/07/17 09:20:16;;;;;;;;;;;;;;;23.82;100.00;148706.31;5014151;28;19948;-79
2022/07/17 09:22:42;;;;;;;;;;;;;;;24.32;100.00;148830.94;5013011;28;20007;-78
2022/07/17 09:25:08;;;;;;;;;;;;;;;24.12;100.00;148779.56;5012880;28;20428;-79
2022/07/17 09:27:33;;;;;;;;;;;;;;;23.19;100.00;148548.41;5014827;28;19924;-80
2022/07/17 09:30:00;;;;;;;;;;;;;;;23.52;100.00;148630.53;5012925;28;19928;-79
2022/07/17 09:32:27;;;;;;;;;;;;;;;23.50;100.00;148625.44;5014144;28;20424;-78
2022/07/17 09:34:53;;;;;;;;;;;;;;;23.39;100.00;148597.19;5012480;28;19960;-79
2022/07/17 09:37:21;;;;;;;;;;;;;;;23.94;100.00;148734.59;4996377;28;19987;-79
2022/07/17 09:39:46;;;;;;;;;;;;;;;23.63;100.00;148657.50;5014436;28;19913;-78
2022/07/17 09:42:21;;;;;;;;;;;;;;;23.82;100.00;148705.06;5012417;28;19913;-79
2022/07/17 09:45:07;;;;;;;;;;;;;;;23.21;100.00;148553.56;5013269;28;19916;-78
2022/07/17 09:47:33;;;;;;;;;;;;;;;23.48;100.00;148621.56;5012926;28;20306;-79
2022/07/17 09:49:59;;;;;;;;;;;;;;;23.36;100.00;148589.50;5013823;28;20432;-79
2022/07/17 09:52:25;;;;;;;;;;;;;;;23.34;100.00;148584.34;5013549;28;19917;-80
2022/07/17 09:54:54;;;;;;;;;;;;;;;23.38;100.00;148594.63;5012945;28;20385;-79
2022/07/17 09:57:30;;;;;;;;;;;;;;;23.04;100.00;148511.16;5013489;28;19913;-79
2022/07/17 09:59:58;;;;;;;;;;;;;;;22.84;100.00;148461.13;5012883;28;19948;-78
2022/07/17 10:02:24;;;;;;;;;;;;;;;23.05;100.00;148512.44;5013572;28;19971;-78
2022/07/17 10:04:50;;;;;;;;;;;;;;;22.87;100.00;148467.50;5012018;28;19944;-78
2022/07/17 10:07:16;;;;;;;;;;;;;;;23.08;100.00;148521.44;5012462;28;19920;-78
2022/07/17 10:09:41;;;;;;;;;;;;;;;23.03;100.00;148508.59;5012318;28;19921;-78
2022/07/17 10:12:07;;;;;;;;;;;;;;;22.98;100.00;148495.75;5011876;28;19914;-79
2022/07/17 10:14:34;;;;;;;;;;;;;;;23.25;100.00;148562.53;5013404;28;19920;-78
2022/07/17 10:17:06;;;;;;;;;;;;;;;23.05;100.00;148512.44;5012412;28;19932;-78
2022/07/17 10:19:32;;;;;;;;;;;;;;;22.80;100.00;148450.84;5012747;28;19914;-78
2022/07/17 10:21:58;;;;;;;;;;;;;;;23.18;100.00;148545.88;5012562;28;19928;-78
2022/07/17 10:24:24;;;;;;;;;;;;;;;23.60;100.00;148649.81;5011693;28;19913;-78
2022/07/17 10:26:49;;;;;;;;;;;;;;;23.44;100.00;148610.03;5012874;28;19936;-79
2022/07/17 10:29:44;;;;;;;;;;;;;;;23.11;100.00;148529.16;5013394;28;20000;-78
2022/07/17 10:32:19;;;;;;;;;;;;;;;23.13;100.00;148533.00;5007611;28;19914;-79
2022/07/17 10:34:48;;;;;;;;;;;;;;;22.95;100.00;148489.34;5012154;28;19924;-78
2022/07/17 10:37:20;;;;;;;;;;;;;;;23.41;100.00;148602.31;5012014;28;20038;-79
2022/07/17 10:39:59;;;;;;;;;;;;;;;23.01;100.00;148502.16;5044456;28;19983;-79
2022/07/17 10:42:41;;;;;;;;;;;;;;;23.13;100.00;148533.00;5012535;28;20487;-78
2022/07/17 10:45:08;;;;;;;;;;;;;;;23.68;100.00;148670.38;5012478;28;19913;-79
2022/07/17 10:47:43;;;;;;;;;;;;;;;23.83;100.00;148708.91;5012975;28;19945;-79
2022/07/17 10:50:10;;;;;;;;;;;;;;;23.17;100.00;148543.28;5011643;28;19913;-78
2022/07/17 10:52:35;;;;;;;;;;;;;;;23.32;100.00;148580.53;5010773;28;19953;-78
2022/07/17 10:55:04;;;;;;;;;;;;;;;23.64;100.00;148660.09;4995339;28;19956;-78
2022/07/17 10:57:30;;;;;;;;;;;;;;;23.89;100.00;148723.06;5011677;28;19951;-78
2022/07/17 10:59:56;;;;;;;;;;;;;;;23.70;100.00;148674.25;5011342;28;19960;-78
2022/07/17 11:02:31;;;;;;;;;;;;;;;23.39;100.00;148598.47;5011817;28;19917;-80
2022/07/17 11:05:07;;;;;;;;;;;;;;;23.40;100.00;148601.06;5011223;28;19913;-81
2022/07/17 11:07:33;;;;;;;;;;;;;;;22.88;100.00;148470.09;5013003;28;20341;-81
2022/07/17 11:09:58;;;;;;;;;;;;;;;23.48;100.00;148621.56;5011304;28;20452;-78
2022/07/17 11:12:32;;;;;;;;;;;;;;;23.67;100.00;148669.06;5011563;28;19917;-82
2022/07/17 11:15:01;;;;;;;;;;;;;;;23.10;100.00;148525.31;5012550;28;19913;-81
2022/07/17 11:17:27;;;;;;;;;;;;;;;23.24;100.00;148559.97;5010577;28;19924;-82
2022/07/17 11:19:52;;;;;;;;;;;;;;;23.51;100.00;148628.00;5011576;28;19914;-80
2022/07/17 11:22:21;;;;;;;;;;;;;;;23.39;100.00;148598.47;5011175;28;19976;-81
2022/07/17 11:24:48;;;;;;;;;;;;;;;23.46;100.00;148615.16;5012744;28;19985;-81
2022/07/17 11:27:19;;;;;;;;;;;;;;;23.53;100.00;148631.88;5011080;28;19925;-79
2022/07/17 11:29:45;;;;;;;;;;;;;;;23.55;100.00;148636.97;5045206;28;19992;-80
2022/07/17 11:32:10;;;;;;;;;;;;;;;23.48;100.00;148621.56;5013352;28;19917;-82
2022/07/17 11:34:35;;;;;;;;;;;;;;;24.06;100.00;148764.16;5009760;28;19917;-81
2022/07/17 11:37:02;;;;;;;;;;;;;;;24.32;100.00;148829.66;5009954;28;20389;-81
2022/07/17 11:39:37;;;;;;;;;;;;;;;24.09;100.00;148771.88;5011234;28;19956;-82
2022/07/17 11:42:03;;;;;;;;;;;;;;;24.09;100.00;148771.88;5011791;28;19913;-80
2022/07/17 11:44:28;;;;;;;;;;;;;;;24.24;100.00;148810.41;5012914;28;19920;-80
2022/07/17 11:46:54;;;;;;;;;;;;;;;23.52;100.00;148630.53;5012312;28;20333;-76
2022/07/17 11:49:30;;;;;;;;;;;;;;;24.19;100.00;148798.84;5009884;28;20020;-78
2022/07/17 11:51:57;;;;;;;;;;;;;;;23.93;100.00;148732.06;5009512;28;19961;-78
2022/07/17 11:54:23;;;;;;;;;;;;;;;23.88;100.00;148720.50;5010710;28;19964;-78
2022/07/17 11:56:56;;;;;;;;;;;;;;;24.07;100.00;148766.75;5011364;28;19913;-81
2022/07/17 11:59:29;;;;;;;;;;;;;;;24.25;100.00;148812.94;5011224;28;19914;-79
2022/07/17 12:01:55;;;;;;;;;;;;;;;24.58;100.00;148893.91;5010259;28;20330;-79
2022/07/17 12:04:22;;;;;;;;;;;;;;;25.01;100.00;149003.13;5009086;28;19914;-79
2022/07/17 12:06:59;;;;;;;;;;;;;;;24.49;100.00;148873.31;5009868;28;19924;-78
2022/07/17 12:09:33;;;;;;;;;;;;;;;23.96;100.00;148739.78;5010061;28;19917;-75
2022/07/17 12:11:59;;;;;;;;;;;;;;;24.46;100.00;148864.34;5010704;28;20000;-78
2022/07/17 12:14:24;;;;;;;;;;;;;;;24.43;100.00;148856.66;5009846;28;19952;-79
2022/07/17 12:16:49;;;;;;;;;;;;;;;24.12;100.00;148780.84;4957190;28;1577187;-78
2022/07/17 12:19:22;;;;;;;;;;;;;;;24.19;100.00;148797.53;5009996;28;19917;-77
2022/07/17 12:21:49;;;;;;;;;;;;;;;24.75;100.00;148936.31;5010889;28;19924;-79
2022/07/17 12:24:18;;;;;;;;;;;;;;;24.26;100.00;148815.53;5010118;28;19924;-80
2022/07/17 12:26:44;;;;;;;;;;;;;;;24.39;100.00;148847.63;5010564;28;19920;-79